Time;durP1;ratioP1;P1;durP2;ratioP2;P2;SDS_P1;SDS_P2;PMS_P1;PMS_P2;Temp;Humidity;BMP_temperature;BMP_pressure;BME280_temperature;BME280_humidity;BME280_pressure;Samples;Min_cycle;Max_cycle;Signal;HPM_P1;HPM_P2
2023/12/22 00:01:02;;;;;;;443.30;393.30;;;;;;;;;;10405695;28;20033;-73
2023/12/22 00:06:02;;;;;;;546.67;422.30;;;;;;;;;;10406835;28;20130;-77
2023/12/22 00:11:03;;;;;;;518.43;398.17;;;;;;;;;;10400439;28;20021;-73
2023/12/22 00:16:04;;;;;;;564.85;382.38;;;;;;;;;;10399438;28;20264;-74
2023/12/22 00:21:04;;;;;;;747.03;436.25;;;;;;;;;;10383196;28;20021;-77
2023/12/22 00:26:09;;;;;;;661.97;415.13;;;;;;;;;;10400247;28;20566;-78
2023/12/22 00:31:10;;;;;;;564.22;411.52;;;;;;;;;;10382063;28;20029;-79
2023/12/22 00:36:10;;;;;;;489.35;440.45;;;;;;;;;;10398865;28;20025;-76
2023/12/22 00:41:10;;;;;;;384.17;333.58;;;;;;;;;;10384684;28;20030;-80
2023/12/22 00:46:10;;;;;;;724.60;500.60;;;;;;;;;;10397461;28;20017;-78
2023/12/22 00:51:11;;;;;;;352.15;306.30;;;;;;;;;;10398531;28;20508;-79
2023/12/22 00:56:13;;;;;;;501.67;367.65;;;;;;;;;;10399399;28;20753;-77
2023/12/22 01:01:13;;;;;;;555.10;409.48;;;;;;;;;;10397725;28;20037;-79
2023/12/22 01:06:14;;;;;;;295.77;268.35;;;;;;;;;;10397986;28;20034;-78
2023/12/22 01:11:15;;;;;;;30.05;13.98;;;;;;;;;;10396583;28;20025;-74
2023/12/22 01:16:15;;;;;;;24.00;13.77;;;;;;;;;;10397830;28;20029;-80
2023/12/22 01:21:16;;;;;;;35.10;15.88;;;;;;;;;;10398439;28;20025;-74
2023/12/22 01:26:16;;;;;;;30.75;13.75;;;;;;;;;;10398199;28;20094;-78
2023/12/22 01:31:16;;;;;;;27.77;13.88;;;;;;;;;;10398833;28;20032;-77
2023/12/22 01:36:16;;;;;;;29.73;15.38;;;;;;;;;;10381217;28;20462;-73
2023/12/22 01:41:16;;;;;;;34.85;15.70;;;;;;;;;;10396732;28;20074;-75
2023/12/22 01:46:18;;;;;;;26.27;12.93;;;;;;;;;;10396874;28;20026;-75
2023/12/22 01:51:18;;;;;;;28.40;13.05;;;;;;;;;;10409934;28;20025;-77
2023/12/22 01:56:19;;;;;;;22.63;12.63;;;;;;;;;;10389843;28;20030;-73
2023/12/22 02:01:20;;;;;;;29.43;15.43;;;;;;;;;;10407424;28;20090;-78
2023/12/22 02:06:20;;;;;;;34.38;15.18;;;;;;;;;;10411857;28;20048;-74
2023/12/22 02:11:21;;;;;;;29.13;14.65;;;;;;;;;;10405057;28;20056;-74
2023/12/22 02:16:44;;;;;;;30.98;13.98;;;;;;;;;;10405624;28;20037;-78
2023/12/22 02:22:04;;;;;;;36.75;14.10;;;;;;;;;;10380043;28;20428;-77
2023/12/22 02:27:07;;;;;;;27.48;13.80;;;;;;;;;;10402612;28;20105;-74
2023/12/22 02:32:11;;;;;;;30.42;14.02;;;;;;;;;;10402425;28;20022;-74
2023/12/22 02:37:12;;;;;;;26.13;12.32;;;;;;;;;;10403392;28;20104;-79
2023/12/22 02:42:12;;;;;;;28.63;13.77;;;;;;;;;;10385791;28;20724;-73
2023/12/22 02:47:12;;;;;;;30.17;13.70;;;;;;;;;;10402563;28;20419;-72
2023/12/22 02:52:13;;;;;;;24.15;12.43;;;;;;;;;;10402592;28;20026;-75
2023/12/22 02:57:13;;;;;;;23.50;13.20;;;;;;;;;;10401479;28;20045;-75
2023/12/22 03:02:13;;;;;;;31.17;14.00;;;;;;;;;;10401100;28;20056;-80
2023/12/22 03:07:13;;;;;;;29.48;14.13;;;;;;;;;;10401868;28;20025;-75
2023/12/22 03:12:14;;;;;;;28.20;14.15;;;;;;;;;;10385489;28;20022;-74
2023/12/22 03:17:14;;;;;;;25.80;13.15;;;;;;;;;;10400776;28;20025;-73
2023/12/22 03:22:14;;;;;;;27.15;13.23;;;;;;;;;;10402193;28;20126;-75
2023/12/22 03:27:16;;;;;;;34.60;16.83;;;;;;;;;;10394288;28;20013;-79
2023/12/22 03:32:16;;;;;;;36.53;16.88;;;;;;;;;;10384064;28;20029;-78
2023/12/22 03:37:16;;;;;;;30.92;17.10;;;;;;;;;;10400523;28;20096;-77
2023/12/22 03:42:16;;;;;;;34.95;17.38;;;;;;;;;;10400643;28;20032;-76
2023/12/22 03:47:17;;;;;;;31.15;16.38;;;;;;;;;;10399787;28;20021;-78
2023/12/22 03:52:17;;;;;;;36.15;17.75;;;;;;;;;;10399247;28;20021;-78
2023/12/22 03:57:17;;;;;;;40.43;17.50;;;;;;;;;;10401115;28;20443;-75
2023/12/22 04:02:18;;;;;;;30.95;16.38;;;;;;;;;;10399015;28;20118;-77
2023/12/22 04:07:18;;;;;;;31.45;16.05;;;;;;;;;;10400497;28;20014;-72
2023/12/22 04:12:18;;;;;;;35.85;17.05;;;;;;;;;;10403173;28;20018;-75
2023/12/22 04:17:18;;;;;;;33.88;15.60;;;;;;;;;;10399807;28;20476;-75
2023/12/22 04:22:19;;;;;;;37.95;18.85;;;;;;;;;;10399433;28;20136;-78
2023/12/22 04:27:20;;;;;;;32.63;16.85;;;;;;;;;;10403371;28;20022;-75
2023/12/22 04:32:20;;;;;;;39.08;16.08;;;;;;;;;;10384444;28;20033;-74
2023/12/22 04:37:20;;;;;;;35.42;17.05;;;;;;;;;;10399244;28;20499;-74
2023/12/22 04:42:20;;;;;;;26.55;15.60;;;;;;;;;;10398508;28;20136;-74
2023/12/22 04:47:21;;;;;;;32.92;16.83;;;;;;;;;;10397877;28;20047;-74
2023/12/22 04:52:21;;;;;;;30.38;14.52;;;;;;;;;;10399186;28;20033;-75
2023/12/22 04:57:22;;;;;;;41.85;16.73;;;;;;;;;;10397695;28;20526;-75
2023/12/22 05:02:22;;;;;;;28.83;16.63;;;;;;;;;;10396749;28;20538;-76
2023/12/22 05:07:22;;;;;;;33.42;16.40;;;;;;;;;;10398471;28;20025;-75
2023/12/22 05:12:22;;;;;;;28.20;14.40;;;;;;;;;;10397168;28;20029;-76
2023/12/22 05:17:23;;;;;;;29.48;14.60;;;;;;;;;;10398680;28;20013;-79
2023/12/22 05:22:23;;;;;;;28.40;15.02;;;;;;;;;;10384601;28;20044;-82
2023/12/22 05:27:23;;;;;;;25.13;14.27;;;;;;;;;;10404486;28;20092;-75
2023/12/22 05:32:24;;;;;;;23.80;13.57;;;;;;;;;;10403197;28;20041;-75
2023/12/22 05:37:24;;;;;;;25.40;13.93;;;;;;;;;;10388361;28;20771;-76
2023/12/22 05:42:24;;;;;;;25.90;13.27;;;;;;;;;;10385571;28;20032;-74
2023/12/22 05:47:24;;;;;;;32.15;13.63;;;;;;;;;;10403816;28;20013;-76
2023/12/22 05:52:25;;;;;;;29.20;13.90;;;;;;;;;;10400687;28;20511;-76
2023/12/22 05:57:25;;;;;;;30.87;13.07;;;;;;;;;;10403715;28;20028;-79
2023/12/22 06:02:25;;;;;;;29.50;14.07;;;;;;;;;;10383463;28;20064;-75
2023/12/22 06:07:26;;;;;;;30.23;15.82;;;;;;;;;;10373398;28;20026;-78
2023/12/22 06:12:26;;;;;;;30.65;15.00;;;;;;;;;;10387297;28;20112;-77
2023/12/22 06:17:27;;;;;;;32.83;15.85;;;;;;;;;;10417402;28;20029;-73
2023/12/22 06:22:27;;;;;;;36.05;15.73;;;;;;;;;;10402348;28;20032;-74
2023/12/22 06:27:27;;;;;;;40.25;21.10;;;;;;;;;;10401977;28;20045;-79
2023/12/22 06:32:27;;;;;;;43.15;20.55;;;;;;;;;;10395472;28;20095;-77
2023/12/22 06:37:27;;;;;;;35.15;18.00;;;;;;;;;;10398826;28;20055;-81
2023/12/22 06:42:28;;;;;;;36.40;19.03;;;;;;;;;;10401010;28;20029;-76
2023/12/22 06:47:28;;;;;;;34.42;18.45;;;;;;;;;;10403127;28;20029;-80
2023/12/22 06:52:28;;;;;;;42.08;20.92;;;;;;;;;;10385513;28;20032;-78
2023/12/22 06:57:28;;;;;;;44.05;19.88;;;;;;;;;;10386054;28;20040;-75
2023/12/22 07:02:29;;;;;;;38.55;17.23;;;;;;;;;;10401139;28;20060;-76
2023/12/22 07:07:29;;;;;;;39.10;17.63;;;;;;;;;;10403315;28;20025;-76
2023/12/22 07:12:30;;;;;;;32.92;19.38;;;;;;;;;;10385851;28;20025;-76
2023/12/22 07:17:30;;;;;;;28.65;15.95;;;;;;;;;;10402797;28;20045;-80
2023/12/22 07:22:30;;;;;;;40.22;16.65;;;;;;;;;;10403168;28;20531;-79
2023/12/22 07:27:49;;;;;;;33.05;18.13;;;;;;;;;;10386973;28;20029;-74
2023/12/22 07:32:52;;;;;;;40.42;18.30;;;;;;;;;;10386123;28;20415;-82
2023/12/22 07:37:52;;;;;;;26.95;15.90;;;;;;;;;;10386004;28;20025;-77
2023/12/22 07:42:52;;;;;;;32.65;16.08;;;;;;;;;;10384778;28;20029;-78
2023/12/22 07:47:53;;;;;;;28.15;15.90;;;;;;;;;;10401936;28;20018;-75
2023/12/22 07:52:53;;;;;;;27.93;13.97;;;;;;;;;;10402381;28;20025;-77
2023/12/22 07:57:53;;;;;;;32.75;17.52;;;;;;;;;;10402895;28;20112;-83
2023/12/22 08:02:53;;;;;;;27.98;15.63;;;;;;;;;;10385295;28;20057;-80
2023/12/22 08:07:53;;;;;;;30.77;15.52;;;;;;;;;;10384607;28;20475;-78
2023/12/22 08:12:54;;;;;;;26.95;14.38;;;;;;;;;;10401156;28;20022;-77
2023/12/22 08:17:54;;;;;;;27.23;14.88;;;;;;;;;;10401285;28;20408;-79
2023/12/22 08:22:54;;;;;;;30.23;13.35;;;;;;;;;;10402964;28;20534;-75
2023/12/22 08:27:54;;;;;;;24.90;14.45;;;;;;;;;;10402338;28;20015;-77
2023/12/22 08:32:55;;;;;;;27.52;14.07;;;;;;;;;;10403269;28;20025;-73
2023/12/22 08:37:55;;;;;;;30.25;16.08;;;;;;;;;;10399691;28;20622;-76
2023/12/22 08:42:59;;;;;;;25.98;15.27;;;;;;;;;;10384267;28;20017;-76
2023/12/22 08:48:00;;;;;;;33.75;17.27;;;;;;;;;;10399036;28;20045;-77
2023/12/22 08:53:00;;;;;;;40.28;19.20;;;;;;;;;;10400149;28;20104;-77
2023/12/22 08:58:04;;;;;;;28.98;16.15;;;;;;;;;;10399759;28;20112;-83
2023/12/22 09:03:04;;;;;;;29.88;15.77;;;;;;;;;;10383575;28;20041;-82
2023/12/22 09:08:05;;;;;;;28.52;16.15;;;;;;;;;;10385283;28;20033;-80
2023/12/22 09:13:06;;;;;;;28.02;15.73;;;;;;;;;;10399290;28;20596;-77
2023/12/22 09:18:06;;;;;;;34.05;17.88;;;;;;;;;;10396697;28;20029;-75
2023/12/22 09:23:08;;;;;;;36.30;16.90;;;;;;;;;;10398297;28;20036;-78
2023/12/22 09:28:08;;;;;;;35.03;18.88;;;;;;;;;;10398136;28;20029;-76
2023/12/22 09:33:09;;;;;;;45.40;21.48;;;;;;;;;;10396222;28;20456;-73
2023/12/22 09:38:10;;;;;;;45.63;21.42;;;;;;;;;;10380578;28;20060;-78
2023/12/22 09:43:12;;;;;;;49.97;21.30;;;;;;;;;;10394365;28;20404;-78
2023/12/22 09:48:17;;;;;;;50.45;21.95;;;;;;;;;;10379219;28;20045;-76
2023/12/22 09:53:19;;;;;;;39.92;19.85;;;;;;;;;;10396523;28;20025;-80
2023/12/22 09:58:19;;;;;;;46.45;21.88;;;;;;;;;;10398941;28;20026;-82
2023/12/22 10:03:20;;;;;;;42.47;20.10;;;;;;;;;;10397370;28;20045;-78
2023/12/22 10:08:20;;;;;;;46.60;20.27;;;;;;;;;;10398146;28;20063;-74
2023/12/22 10:13:21;;;;;;;44.75;20.13;;;;;;;;;;10403686;28;20342;-75
2023/12/22 10:18:21;;;;;;;39.75;20.25;;;;;;;;;;10403267;28;20040;-79
2023/12/22 10:23:21;;;;;;;38.13;19.33;;;;;;;;;;10388202;28;20171;-80
2023/12/22 10:28:24;;;;;;;43.53;20.92;;;;;;;;;;10405190;28;20448;-74
2023/12/22 10:33:24;;;;;;;44.97;20.58;;;;;;;;;;10402429;28;20406;-76
2023/12/22 10:38:25;;;;;;;38.72;21.60;;;;;;;;;;10405763;28;20025;-80
2023/12/22 10:43:25;;;;;;;45.33;21.25;;;;;;;;;;10386492;28;20029;-76
2023/12/22 10:48:26;;;;;;;42.72;20.70;;;;;;;;;;10408841;28;20018;-78
2023/12/22 10:53:26;;;;;;;39.40;21.20;;;;;;;;;;10423248;28;20032;-77
2023/12/22 10:58:28;;;;;;;28.80;16.50;;;;;;;;;;10407013;28;20026;-72
2023/12/22 11:03:29;;;;;;;35.72;19.27;;;;;;;;;;10396297;28;20045;-82
2023/12/22 11:08:29;;;;;;;36.83;18.27;;;;;;;;;;10386022;28;20017;-77
2023/12/22 11:13:31;;;;;;;32.53;18.83;;;;;;;;;;10403076;28;20040;-74
2023/12/22 11:18:33;;;;;;;27.75;15.50;;;;;;;;;;10401287;28;20021;-81
2023/12/22 11:23:33;;;;;;;29.00;14.95;;;;;;;;;;10400282;28;20044;-77
2023/12/22 11:28:34;;;;;;;28.73;12.25;;;;;;;;;;10402178;28;20048;-82
2023/12/22 11:33:36;;;;;;;28.58;16.13;;;;;;;;;;10399460;28;20538;-76
2023/12/22 11:38:36;;;;;;;34.97;14.38;;;;;;;;;;10399549;28;20025;-76
2023/12/22 11:43:37;;;;;;;20.58;10.80;;;;;;;;;;10382327;28;20025;-75
2023/12/22 11:48:37;;;;;;;16.15;8.95;;;;;;;;;;10382157;28;20436;-76
2023/12/22 11:53:37;;;;;;;8.65;4.80;;;;;;;;;;10398657;28;20029;-78
2023/12/22 11:58:41;;;;;;;8.63;4.30;;;;;;;;;;10381691;28;20045;-81
2023/12/22 12:03:42;;;;;;;5.60;3.28;;;;;;;;;;10381381;28;20072;-76
2023/12/22 12:08:43;;;;;;;5.07;1.70;;;;;;;;;;10384249;28;20109;-75
2023/12/22 12:13:44;;;;;;;1.88;1.05;;;;;;;;;;10402694;28;20013;-76
2023/12/22 12:18:45;;;;;;;2.67;1.42;;;;;;;;;;10399645;28;20026;-85
2023/12/22 12:23:45;;;;;;;1.67;1.20;;;;;;;;;;10384737;28;20573;-79
2023/12/22 12:28:46;;;;;;;2.72;1.63;;;;;;;;;;10399375;28;20771;-75
2023/12/22 12:33:46;;;;;;;2.13;1.15;;;;;;;;;;10398912;28;20518;-75
2023/12/22 12:38:55;;;;;;;1.90;1.13;;;;;;;;;;10399971;28;20029;-72
2023/12/22 12:43:56;;;;;;;1.83;0.80;;;;;;;;;;10400270;28;20500;-77
2023/12/22 12:49:04;;;;;;;2.67;0.75;;;;;;;;;;10383395;28;20030;-75
2023/12/22 12:54:04;;;;;;;1.75;1.45;;;;;;;;;;10404292;28;20033;-77
2023/12/22 12:59:08;;;;;;;2.45;1.60;;;;;;;;;;10398318;28;20026;-76
2023/12/22 13:04:09;;;;;;;2.20;1.65;;;;;;;;;;10381336;28;20459;-77
2023/12/22 13:09:09;;;;;;;2.70;1.05;;;;;;;;;;10398224;28;20029;-75
2023/12/22 13:14:10;;;;;;;2.17;1.70;;;;;;;;;;10379195;28;20389;-76
2023/12/22 13:19:10;;;;;;;4.40;1.58;;;;;;;;;;10377629;28;20037;-75
2023/12/22 13:24:11;;;;;;;4.20;1.45;;;;;;;;;;10380639;28;20029;-75
2023/12/22 13:29:12;;;;;;;18.13;2.03;;;;;;;;;;10384123;28;20495;-75
2023/12/22 13:34:13;;;;;;;9.02;2.60;;;;;;;;;;10382575;28;20032;-74
2023/12/22 13:39:13;;;;;;;7.18;2.53;;;;;;;;;;10382033;28;20116;-75
2023/12/22 13:44:14;;;;;;;9.00;2.60;;;;;;;;;;10402853;28;20021;-75
2023/12/22 13:49:14;;;;;;;3.50;2.35;;;;;;;;;;10406618;28;20021;-76
2023/12/22 13:54:14;;;;;;;2.92;2.03;;;;;;;;;;10387580;28;20127;-75
2023/12/22 13:59:14;;;;;;;2.67;1.83;;;;;;;;;;10408029;28;20032;-75
2023/12/22 14:04:15;;;;;;;4.40;1.57;;;;;;;;;;10389381;28;20482;-75
2023/12/22 14:09:19;;;;;;;2.03;1.27;;;;;;;;;;10407161;28;20612;-77
2023/12/22 14:14:19;;;;;;;2.03;1.00;;;;;;;;;;10406974;28;20025;-78
2023/12/22 14:19:19;;;;;;;3.22;1.13;;;;;;;;;;10403991;28;20032;-77
2023/12/22 14:24:19;;;;;;;1.63;0.98;;;;;;;;;;10405151;28;20025;-76
2023/12/22 14:29:24;;;;;;;3.42;2.00;;;;;;;;;;10405997;28;20018;-82
2023/12/22 14:34:25;;;;;;;2.13;1.20;;;;;;;;;;10406585;28;20033;-78
2023/12/22 14:39:26;;;;;;;2.40;1.67;;;;;;;;;;10411720;28;20026;-75
2023/12/22 14:44:26;;;;;;;3.63;1.30;;;;;;;;;;10404540;28;20082;-77
2023/12/22 14:49:26;;;;;;;5.80;1.50;;;;;;;;;;10404435;28;20883;-73
2023/12/22 14:54:27;;;;;;;1.73;1.30;;;;;;;;;;10403000;28;20025;-76
2023/12/22 14:59:27;;;;;;;2.50;1.75;;;;;;;;;;10406223;28;20500;-75
2023/12/22 15:04:27;;;;;;;3.45;2.05;;;;;;;;;;10404519;28;20569;-74
2023/12/22 15:09:27;;;;;;;5.32;2.10;;;;;;;;;;10407102;28;20662;-76
2023/12/22 15:14:28;;;;;;;4.17;1.97;;;;;;;;;;10386913;28;20064;-76
2023/12/22 15:19:28;;;;;;;6.03;2.10;;;;;;;;;;10386793;28;20856;-80
2023/12/22 15:24:28;;;;;;;3.33;1.48;;;;;;;;;;10402425;28;20026;-74
2023/12/22 15:29:29;;;;;;;3.78;2.33;;;;;;;;;;10402593;28;20121;-76
2023/12/22 15:34:31;;;;;;;2.55;1.67;;;;;;;;;;10403297;28;20393;-85
2023/12/22 15:39:31;;;;;;;2.30;1.77;;;;;;;;;;10402854;28;20025;-77
2023/12/22 15:44:31;;;;;;;14.20;2.92;;;;;;;;;;10383305;28;20135;-77
2023/12/22 15:49:31;;;;;;;3.80;1.90;;;;;;;;;;10402961;28;20397;-81
2023/12/22 15:54:32;;;;;;;5.60;2.15;;;;;;;;;;10402522;28;20488;-80
2023/12/22 15:59:32;;;;;;;6.43;2.72;;;;;;;;;;10382904;28;20025;-74
2023/12/22 16:04:32;;;;;;;6.15;2.10;;;;;;;;;;10398551;28;20508;-77
2023/12/22 16:09:36;;;;;;;8.60;2.65;;;;;;;;;;10397981;28;20087;-74
2023/12/22 16:14:36;;;;;;;11.05;2.97;;;;;;;;;;10398939;28;20033;-74
2023/12/22 16:19:40;;;;;;;4.68;1.77;;;;;;;;;;10398532;28;20013;-77
2023/12/22 16:24:41;;;;;;;5.15;1.10;;;;;;;;;;10384108;28;20029;-76
2023/12/22 16:29:41;;;;;;;2.13;1.57;;;;;;;;;;10400407;28;20009;-77
2023/12/22 16:34:42;;;;;;;2.58;1.65;;;;;;;;;;10400464;28;20018;-80
2023/12/22 16:39:52;;;;;;;4.53;2.40;;;;;;;;;;10375839;28;20040;-77
2023/12/22 16:44:52;;;;;;;12.48;2.83;;;;;;;;;;10384328;28;20112;-79
2023/12/22 16:49:53;;;;;;;18.02;3.03;;;;;;;;;;10388151;28;20014;-77
2023/12/22 16:54:53;;;;;;;13.00;2.75;;;;;;;;;;10366437;28;20017;-76
2023/12/22 16:59:53;;;;;;;4.63;1.90;;;;;;;;;;10376916;28;20017;-78
2023/12/22 17:04:54;;;;;;;20.88;3.15;;;;;;;;;;10373187;28;20438;-73
2023/12/22 17:09:54;;;;;;;4.80;2.25;;;;;;;;;;10384467;28;20477;-77
2023/12/22 17:14:54;;;;;;;4.53;2.10;;;;;;;;;;10377270;28;20029;-77
2023/12/22 17:19:55;;;;;;;5.28;1.95;;;;;;;;;;10368653;28;20061;-76
2023/12/22 17:24:55;;;;;;;6.25;1.70;;;;;;;;;;10390352;28;20029;-75
2023/12/22 17:29:55;;;;;;;2.42;1.60;;;;;;;;;;10390906;28;20557;-75
2023/12/22 17:34:55;;;;;;;3.20;1.30;;;;;;;;;;10393724;28;20132;-81
2023/12/22 17:39:55;;;;;;;3.85;2.10;;;;;;;;;;10384497;28;20544;-82
2023/12/22 17:44:56;;;;;;;6.15;2.08;;;;;;;;;;10383571;28;20022;-79
2023/12/22 17:49:56;;;;;;;3.20;2.03;;;;;;;;;;10383439;28;20029;-78
2023/12/22 17:54:56;;;;;;;2.53;1.67;;;;;;;;;;10381270;28;20017;-76
2023/12/22 17:59:56;;;;;;;3.63;2.08;;;;;;;;;;10375418;28;20021;-78
2023/12/22 18:04:57;;;;;;;5.13;1.95;;;;;;;;;;10373558;28;20507;-77
2023/12/22 18:09:57;;;;;;;2.53;1.55;;;;;;;;;;10371520;28;20025;-76
2023/12/22 18:14:57;;;;;;;2.25;1.13;;;;;;;;;;10373958;28;20518;-80
2023/12/22 18:19:57;;;;;;;15.93;2.65;;;;;;;;;;10366715;28;20172;-78
2023/12/22 18:24:58;;;;;;;3.38;1.60;;;;;;;;;;10386263;28;20104;-77
2023/12/22 18:29:58;;;;;;;3.05;1.20;;;;;;;;;;10374641;28;20546;-76
2023/12/22 18:34:58;;;;;;;8.38;1.63;;;;;;;;;;10388946;28;20022;-76
2023/12/22 18:39:58;;;;;;;6.68;2.40;;;;;;;;;;10363200;28;20104;-77
2023/12/22 18:44:59;;;;;;;4.03;1.50;;;;;;;;;;10371586;28;20476;-76
2023/12/22 18:49:59;;;;;;;10.88;1.50;;;;;;;;;;10371278;28;20491;-75
2023/12/22 18:54:59;;;;;;;6.63;1.83;;;;;;;;;;10380072;28;20018;-76
2023/12/22 18:59:59;;;;;;;5.33;1.73;;;;;;;;;;10372065;28;20703;-75
2023/12/22 19:04:59;;;;;;;10.38;2.33;;;;;;;;;;10364839;28;20044;-78
2023/12/22 19:10:00;;;;;;;12.05;1.90;;;;;;;;;;10352900;28;20158;-74
2023/12/22 19:15:00;;;;;;;4.15;2.03;;;;;;;;;;10330842;28;20500;-79
2023/12/22 19:20:00;;;;;;;9.32;3.35;;;;;;;;;;10356764;28;20475;-77
2023/12/22 19:25:01;;;;;;;8.25;3.45;;;;;;;;;;10358983;28;20025;-76
2023/12/22 19:30:01;;;;;;;1.70;1.38;;;;;;;;;;10352700;28;20023;-76
2023/12/22 19:35:02;;;;;;;1.70;1.05;;;;;;;;;;10333803;28;20026;-76
2023/12/22 19:40:05;;;;;;;7.25;1.60;;;;;;;;;;10324048;28;20409;-75
2023/12/22 19:45:06;;;;;;;1.55;1.00;;;;;;;;;;10344166;28;20080;-76
2023/12/22 19:50:07;;;;;;;2.15;0.98;;;;;;;;;;10325466;28;20350;-77
2023/12/22 19:55:07;;;;;;;0.85;0.55;;;;;;;;;;10340034;28;20026;-77
2023/12/22 20:00:08;;;;;;;4.47;1.08;;;;;;;;;;10346388;28;20077;-76
2023/12/22 20:05:11;;;;;;;2.53;0.90;;;;;;;;;;10345284;28;20422;-77
2023/12/22 20:10:11;;;;;;;4.85;1.40;;;;;;;;;;10363250;28;20510;-79
2023/12/22 20:15:12;;;;;;;15.63;7.05;;;;;;;;;;10337884;28;20026;-77
2023/12/22 20:20:12;;;;;;;17.33;8.38;;;;;;;;;;10323444;28;20497;-78
2023/12/22 20:25:12;;;;;;;17.05;6.80;;;;;;;;;;10329621;28;20022;-79
2023/12/22 20:30:12;;;;;;;21.55;9.10;;;;;;;;;;10316985;28;20030;-80
2023/12/22 20:35:16;;;;;;;28.23;10.80;;;;;;;;;;10324486;28;20038;-79
2023/12/22 20:40:16;;;;;;;20.50;9.98;;;;;;;;;;10330717;28;20277;-82
2023/12/22 20:45:16;;;;;;;5.00;2.20;;;;;;;;;;10332759;28;20029;-78
2023/12/22 20:50:17;;;;;;;1.40;0.60;;;;;;;;;;10336747;28;20116;-78
2023/12/22 20:55:18;;;;;;;3.58;1.65;;;;;;;;;;10320723;28;20046;-78
2023/12/22 21:00:18;;;;;;;5.55;1.23;;;;;;;;;;10328891;28;20026;-78
2023/12/22 21:05:19;;;;;;;2.35;0.70;;;;;;;;;;10304371;28;20054;-80
2023/12/22 21:10:19;;;;;;;0.95;0.70;;;;;;;;;;10316321;28;20513;-79
2023/12/22 21:15:20;;;;;;;2.83;1.00;;;;;;;;;;10297735;28;20022;-79
2023/12/22 21:20:20;;;;;;;3.63;1.30;;;;;;;;;;10324438;28;20429;-82
2023/12/22 21:25:21;;;;;;;1.63;1.05;;;;;;;;;;10301288;28;20026;-75
2023/12/22 21:30:22;;;;;;;0.85;0.50;;;;;;;;;;10291491;28;20452;-82
2023/12/22 21:35:23;;;;;;;3.47;0.77;;;;;;;;;;10313564;28;20036;-80
2023/12/22 21:40:23;;;;;;;8.20;3.28;;;;;;;;;;10294747;28;20413;-79
2023/12/22 21:45:24;;;;;;;1.15;0.63;;;;;;;;;;10297446;28;20042;-83
2023/12/22 21:50:24;;;;;;;1.02;0.50;;;;;;;;;;10300653;28;20133;-79
2023/12/22 21:55:24;;;;;;;3.08;0.60;;;;;;;;;;10296709;28;20492;-81
2023/12/22 22:00:24;;;;;;;1.80;0.98;;;;;;;;;;10302374;28;20094;-79
2023/12/22 22:05:25;;;;;;;2.00;0.57;;;;;;;;;;10311271;28;20539;-83
2023/12/22 22:10:25;;;;;;;2.10;0.73;;;;;;;;;;10297390;28;20034;-80
2023/12/22 22:15:25;;;;;;;1.90;0.90;;;;;;;;;;10316931;28;20062;-81
2023/12/22 22:20:25;;;;;;;13.75;1.13;;;;;;;;;;10304075;28;20025;-77
2023/12/22 22:25:25;;;;;;;5.43;1.33;;;;;;;;;;10304088;28;20025;-79
2023/12/22 22:30:26;;;;;;;4.07;1.10;;;;;;;;;;10325357;28;20349;-81
2023/12/22 22:35:26;;;;;;;5.72;2.65;;;;;;;;;;10312676;28;20022;-79
2023/12/22 22:40:26;;;;;;;9.15;4.18;;;;;;;;;;10301166;28;20493;-77
2023/12/22 22:45:26;;;;;;;5.75;3.67;;;;;;;;;;10314740;28;20452;-79
2023/12/22 22:50:27;;;;;;;9.40;4.93;;;;;;;;;;10308475;28;20025;-80
2023/12/22 22:55:30;;;;;;;8.70;3.58;;;;;;;;;;10314201;28;20114;-77
2023/12/22 23:00:32;;;;;;;8.00;4.07;;;;;;;;;;10312903;28;20015;-78
2023/12/22 23:05:35;;;;;;;13.43;4.88;;;;;;;;;;10298190;28;20166;-78
2023/12/22 23:10:35;;;;;;;13.05;5.45;;;;;;;;;;10314714;28;20110;-78
2023/12/22 23:15:35;;;;;;;9.27;4.80;;;;;;;;;;10323790;28;20022;-78
2023/12/22 23:20:35;;;;;;;8.65;4.10;;;;;;;;;;10322290;28;20018;-78
2023/12/22 23:25:36;;;;;;;6.33;4.10;;;;;;;;;;10322352;28;20058;-78
2023/12/22 23:30:36;;;;;;;8.20;4.93;;;;;;;;;;10323114;28;20018;-78
2023/12/22 23:35:36;;;;;;;8.32;4.47;;;;;;;;;;10322214;28;20030;-77
2023/12/22 23:40:36;;;;;;;10.10;3.92;;;;;;;;;;10321980;28;20527;-76
2023/12/22 23:45:37;;;;;;;13.10;5.18;;;;;;;;;;10322024;28;20421;-79
2023/12/22 23:50:37;;;;;;;16.77;4.72;;;;;;;;;;10302691;28;20030;-75
2023/12/22 23:55:37;;;;;;;7.72;4.50;;;;;;;;;;10317090;28;20034;-75
